sensor_id;sensor_type;location;lat;lon;timestamp;pressure;altitude;pressure_sealevel;temperature;humidity
57600;BME280;43426;43.594;24.334;2023-10-31T00:00:30;101199.28;;;8.15;82.59
57600;BME280;43426;43.594;24.334;2023-10-31T00:02:55;101198.00;;;8.19;82.83
57600;BME280;43426;43.594;24.334;2023-10-31T00:05:20;101195.16;;;8.21;82.52
57600;BME280;43426;43.594;24.334;2023-10-31T00:07:46;101194.03;;;8.13;82.69
57600;BME280;43426;43.594;24.334;2023-10-31T00:10:11;101182.16;;;8.16;83.31
57600;BME280;43426;43.594;24.334;2023-10-31T00:12:36;101180.59;;;8.23;83.44
57600;BME280;43426;43.594;24.334;2023-10-31T00:15:02;101180.88;;;8.20;83.70
57600;BME280;43426;43.594;24.334;2023-10-31T00:17:27;101176.09;;;8.04;83.75
57600;BME280;43426;43.594;24.334;2023-10-31T00:19:52;101171.31;;;7.98;83.99
57600;BME280;43426;43.594;24.334;2023-10-31T00:22:17;101168.47;;;7.99;83.64
57600;BME280;43426;43.594;24.334;2023-10-31T00:24:43;101165.22;;;7.96;83.10
57600;BME280;43426;43.594;24.334;2023-10-31T00:27:08;101176.22;;;8.02;81.96
57600;BME280;43426;43.594;24.334;2023-10-31T00:29:34;101169.88;;;7.94;81.11
57600;BME280;43426;43.594;24.334;2023-10-31T00:31:59;101161.84;;;7.84;81.15
57600;BME280;43426;43.594;24.334;2023-10-31T00:34:24;101154.63;;;7.65;82.89
57600;BME280;43426;43.594;24.334;2023-10-31T00:36:49;101159.16;;;7.64;83.45
57600;BME280;43426;43.594;24.334;2023-10-31T00:39:15;101158.16;;;7.65;83.70
57600;BME280;43426;43.594;24.334;2023-10-31T00:41:43;101156.75;;;7.71;84.21
57600;BME280;43426;43.594;24.334;2023-10-31T00:44:09;101156.88;;;7.79;84.24
57600;BME280;43426;43.594;24.334;2023-10-31T00:46:34;101158.59;;;7.61;84.79
57600;BME280;43426;43.594;24.334;2023-10-31T00:49:00;101151.13;;;7.55;85.28
57600;BME280;43426;43.594;24.334;2023-10-31T00:51:25;101146.88;;;7.62;85.71
57600;BME280;43426;43.594;24.334;2023-10-31T00:53:50;101146.28;;;7.68;85.37
57600;BME280;43426;43.594;24.334;2023-10-31T00:56:15;101151.50;;;7.79;85.36
57600;BME280;43426;43.594;24.334;2023-10-31T00:58:41;101143.31;;;7.71;84.35
57600;BME280;43426;43.594;24.334;2023-10-31T01:01:06;101143.75;;;7.66;83.91
57600;BME280;43426;43.594;24.334;2023-10-31T01:03:31;101141.06;;;7.47;83.42
57600;BME280;43426;43.594;24.334;2023-10-31T01:05:56;101137.81;;;7.43;84.09
57600;BME280;43426;43.594;24.334;2023-10-31T01:08:22;101143.31;;;7.32;84.61
57600;BME280;43426;43.594;24.334;2023-10-31T01:10:47;101135.97;;;7.24;85.56
57600;BME280;43426;43.594;24.334;2023-10-31T01:13:12;101141.88;;;7.18;87.02
57600;BME280;43426;43.594;24.334;2023-10-31T01:15:38;101140.75;;;7.21;87.16
57600;BME280;43426;43.594;24.334;2023-10-31T01:18:03;101137.66;;;7.25;86.56
57600;BME280;43426;43.594;24.334;2023-10-31T01:20:28;101133.28;;;7.24;86.42
57600;BME280;43426;43.594;24.334;2023-10-31T01:22:54;101135.69;;;7.18;86.75
57600;BME280;43426;43.594;24.334;2023-10-31T01:25:19;101129.72;;;7.14;87.26
57600;BME280;43426;43.594;24.334;2023-10-31T01:27:44;101128.91;;;7.13;87.65
57600;BME280;43426;43.594;24.334;2023-10-31T01:30:09;101125.91;;;7.07;88.28
57600;BME280;43426;43.594;24.334;2023-10-31T01:32:35;101123.81;;;7.10;89.39
57600;BME280;43426;43.594;24.334;2023-10-31T01:35:00;101131.84;;;7.10;89.50
57600;BME280;43426;43.594;24.334;2023-10-31T01:37:26;101131.72;;;7.12;88.93
57600;BME280;43426;43.594;24.334;2023-10-31T01:39:51;101120.84;;;7.23;87.58
57600;BME280;43426;43.594;24.334;2023-10-31T01:42:17;101114.66;;;7.23;87.49
57600;BME280;43426;43.594;24.334;2023-10-31T01:44:42;101110.81;;;7.35;87.45
57600;BME280;43426;43.594;24.334;2023-10-31T01:47:07;101105.72;;;7.32;86.40
57600;BME280;43426;43.594;24.334;2023-10-31T01:49:33;101113.09;;;7.20;85.84
57600;BME280;43426;43.594;24.334;2023-10-31T01:52:01;101111.38;;;7.09;84.97
57600;BME280;43426;43.594;24.334;2023-10-31T01:54:27;101114.88;;;6.90;84.28
57600;BME280;43426;43.594;24.334;2023-10-31T01:56:54;101109.28;;;6.62;86.31
57600;BME280;43426;43.594;24.334;2023-10-31T01:59:21;101112.94;;;6.61;87.76
57600;BME280;43426;43.594;24.334;2023-10-31T02:01:46;101105.34;;;6.67;88.41
57600;BME280;43426;43.594;24.334;2023-10-31T02:04:12;101104.38;;;6.68;88.42
57600;BME280;43426;43.594;24.334;2023-10-31T02:06:37;101101.84;;;6.76;88.90
57600;BME280;43426;43.594;24.334;2023-10-31T02:09:02;101101.88;;;6.86;88.26
57600;BME280;43426;43.594;24.334;2023-10-31T02:11:28;101108.22;;;6.94;87.43
57600;BME280;43426;43.594;24.334;2023-10-31T02:13:53;101101.16;;;6.84;87.63
57600;BME280;43426;43.594;24.334;2023-10-31T02:16:18;101112.47;;;6.87;84.39
57600;BME280;43426;43.594;24.334;2023-10-31T02:18:43;101111.03;;;6.73;84.41
57600;BME280;43426;43.594;24.334;2023-10-31T02:21:09;101110.44;;;6.70;84.98
57600;BME280;43426;43.594;24.334;2023-10-31T02:23:34;101103.06;;;6.52;85.18
57600;BME280;43426;43.594;24.334;2023-10-31T02:25:59;101115.31;;;6.55;86.92
57600;BME280;43426;43.594;24.334;2023-10-31T02:28:24;101112.06;;;6.51;87.55
57600;BME280;43426;43.594;24.334;2023-10-31T02:30:53;101115.03;;;6.48;88.76
57600;BME280;43426;43.594;24.334;2023-10-31T02:33:18;101109.25;;;6.53;88.83
57600;BME280;43426;43.594;24.334;2023-10-31T02:35:43;101110.25;;;6.61;88.98
57600;BME280;43426;43.594;24.334;2023-10-31T02:38:09;101105.31;;;6.57;88.94
57600;BME280;43426;43.594;24.334;2023-10-31T02:40:34;101114.66;;;6.62;88.21
57600;BME280;43426;43.594;24.334;2023-10-31T02:42:59;101114.91;;;6.50;89.16
57600;BME280;43426;43.594;24.334;2023-10-31T02:45:24;101109.53;;;6.50;89.32
57600;BME280;43426;43.594;24.334;2023-10-31T02:47:50;101114.44;;;6.44;89.87
57600;BME280;43426;43.594;24.334;2023-10-31T02:50:15;101119.56;;;6.57;89.97
57600;BME280;43426;43.594;24.334;2023-10-31T02:52:41;101121.41;;;6.57;90.38
57600;BME280;43426;43.594;24.334;2023-10-31T02:55:06;101116.22;;;6.65;90.30
57600;BME280;43426;43.594;24.334;2023-10-31T02:57:31;101110.44;;;6.70;89.85
57600;BME280;43426;43.594;24.334;2023-10-31T02:59:57;101116.66;;;6.70;89.21
57600;BME280;43426;43.594;24.334;2023-10-31T03:02:22;101116.34;;;6.63;87.59
57600;BME280;43426;43.594;24.334;2023-10-31T03:04:47;101116.31;;;6.54;88.35
57600;BME280;43426;43.594;24.334;2023-10-31T03:07:12;101124.31;;;6.44;88.48
57600;BME280;43426;43.594;24.334;2023-10-31T03:09:38;101124.31;;;6.44;87.89
57600;BME280;43426;43.594;24.334;2023-10-31T03:12:03;101121.50;;;6.45;87.07
57600;BME280;43426;43.594;24.334;2023-10-31T03:14:28;101128.13;;;6.41;87.73
57600;BME280;43426;43.594;24.334;2023-10-31T03:16:54;101120.13;;;6.51;88.55
57600;BME280;43426;43.594;24.334;2023-10-31T03:19:19;101113.88;;;6.51;88.62
57600;BME280;43426;43.594;24.334;2023-10-31T03:21:44;101117.44;;;6.51;88.81
57600;BME280;43426;43.594;24.334;2023-10-31T03:24:09;101118.06;;;6.34;88.73
57600;BME280;43426;43.594;24.334;2023-10-31T03:26:35;101115.66;;;6.30;89.02
57600;BME280;43426;43.594;24.334;2023-10-31T03:29:00;101120.03;;;6.32;89.53
57600;BME280;43426;43.594;24.334;2023-10-31T03:31:25;101112.53;;;6.25;89.47
57600;BME280;43426;43.594;24.334;2023-10-31T03:33:51;101114.91;;;6.28;89.82
57600;BME280;43426;43.594;24.334;2023-10-31T03:36:17;101114.22;;;6.26;89.42
57600;BME280;43426;43.594;24.334;2023-10-31T03:38:42;101111.34;;;6.18;86.88
57600;BME280;43426;43.594;24.334;2023-10-31T03:41:07;101113.41;;;6.05;85.26
57600;BME280;43426;43.594;24.334;2023-10-31T03:43:33;101111.59;;;5.94;84.93
57600;BME280;43426;43.594;24.334;2023-10-31T03:45:58;101096.66;;;5.70;85.86
57600;BME280;43426;43.594;24.334;2023-10-31T03:48:23;101098.69;;;5.78;87.26
57600;BME280;43426;43.594;24.334;2023-10-31T03:50:49;101101.88;;;5.93;87.30
57600;BME280;43426;43.594;24.334;2023-10-31T03:53:15;101098.69;;;5.78;88.35
57600;BME280;43426;43.594;24.334;2023-10-31T03:55:40;101092.50;;;5.77;87.66
57600;BME280;43426;43.594;24.334;2023-10-31T03:58:06;101098.22;;;5.73;87.03
57600;BME280;43426;43.594;24.334;2023-10-31T04:00:31;101088.75;;;5.69;87.84
57600;BME280;43426;43.594;24.334;2023-10-31T04:02:56;101089.34;;;5.51;88.95
57600;BME280;43426;43.594;24.334;2023-10-31T04:05:22;101089.59;;;5.48;90.62
57600;BME280;43426;43.594;24.334;2023-10-31T04:07:48;101089.47;;;5.50;92.00
57600;BME280;43426;43.594;24.334;2023-10-31T04:10:13;101086.88;;;5.59;92.26
57600;BME280;43426;43.594;24.334;2023-10-31T04:12:39;101071.78;;;5.58;92.55
57600;BME280;43426;43.594;24.334;2023-10-31T04:15:04;101076.94;;;5.71;92.45
57600;BME280;43426;43.594;24.334;2023-10-31T04:17:30;101076.53;;;5.76;92.38
57600;BME280;43426;43.594;24.334;2023-10-31T04:19:55;101074.88;;;5.75;92.04
57600;BME280;43426;43.594;24.334;2023-10-31T04:22:21;101077.31;;;5.88;91.66
57600;BME280;43426;43.594;24.334;2023-10-31T04:24:46;101073.28;;;5.72;92.05
57600;BME280;43426;43.594;24.334;2023-10-31T04:27:11;101071.72;;;5.70;92.55
57600;BME280;43426;43.594;24.334;2023-10-31T04:29:37;101062.25;;;5.66;93.07
57600;BME280;43426;43.594;24.334;2023-10-31T04:32:02;101065.00;;;5.75;92.97
57600;BME280;43426;43.594;24.334;2023-10-31T04:34:27;101060.41;;;5.87;92.96
57600;BME280;43426;43.594;24.334;2023-10-31T04:36:53;101068.03;;;5.92;91.41
57600;BME280;43426;43.594;24.334;2023-10-31T04:39:18;101064.97;;;5.96;89.86
57600;BME280;43426;43.594;24.334;2023-10-31T04:41:44;101056.03;;;5.86;85.43
57600;BME280;43426;43.594;24.334;2023-10-31T04:44:09;101058.22;;;5.50;85.22
57600;BME280;43426;43.594;24.334;2023-10-31T04:46:34;101052.66;;;5.21;87.23
57600;BME280;43426;43.594;24.334;2023-10-31T04:48:59;101063.91;;;5.24;91.07
57600;BME280;43426;43.594;24.334;2023-10-31T04:51:25;101066.03;;;5.21;91.75
57600;BME280;43426;43.594;24.334;2023-10-31T04:53:50;101067.34;;;5.26;91.62
57600;BME280;43426;43.594;24.334;2023-10-31T04:56:15;101054.66;;;5.28;90.44
57600;BME280;43426;43.594;24.334;2023-10-31T04:58:41;101056.28;;;5.20;90.49
57600;BME280;43426;43.594;24.334;2023-10-31T05:01:08;101063.84;;;5.15;90.35
57600;BME280;43426;43.594;24.334;2023-10-31T05:03:33;101067.53;;;5.02;90.94
57600;BME280;43426;43.594;24.334;2023-10-31T05:05:58;101075.31;;;5.05;92.11
57600;BME280;43426;43.594;24.334;2023-10-31T05:08:24;101070.94;;;5.04;92.67
57600;BME280;43426;43.594;24.334;2023-10-31T05:10:49;101064.38;;;5.08;92.55
57600;BME280;43426;43.594;24.334;2023-10-31T05:13:15;101066.22;;;5.29;91.20
57600;BME280;43426;43.594;24.334;2023-10-31T05:15:40;101061.28;;;5.13;91.99
57600;BME280;43426;43.594;24.334;2023-10-31T05:18:05;101057.72;;;5.24;92.27
57600;BME280;43426;43.594;24.334;2023-10-31T05:20:31;101071.09;;;5.24;92.08
57600;BME280;43426;43.594;24.334;2023-10-31T05:22:56;101066.16;;;5.40;92.38
57600;BME280;43426;43.594;24.334;2023-10-31T05:25:21;101063.28;;;5.53;92.09
57600;BME280;43426;43.594;24.334;2023-10-31T05:27:46;101070.69;;;5.61;91.89
57600;BME280;43426;43.594;24.334;2023-10-31T05:30:13;101075.25;;;5.91;91.88
57600;BME280;43426;43.594;24.334;2023-10-31T05:32:39;101061.78;;;6.03;92.38
57600;BME280;43426;43.594;24.334;2023-10-31T05:35:04;101070.53;;;6.36;91.84
57600;BME280;43426;43.594;24.334;2023-10-31T05:37:30;101072.88;;;6.60;91.72
57600;BME280;43426;43.594;24.334;2023-10-31T05:39:55;101074.63;;;6.90;89.95
57600;BME280;43426;43.594;24.334;2023-10-31T05:42:20;101065.19;;;7.15;90.73
57600;BME280;43426;43.594;24.334;2023-10-31T05:44:46;101074.94;;;7.46;89.75
57600;BME280;43426;43.594;24.334;2023-10-31T05:47:11;101087.66;;;7.54;89.28
57600;BME280;43426;43.594;24.334;2023-10-31T05:49:36;101077.69;;;7.83;88.83
57600;BME280;43426;43.594;24.334;2023-10-31T05:52:02;101079.91;;;8.08;87.95
57600;BME280;43426;43.594;24.334;2023-10-31T05:54:27;101084.75;;;8.32;87.27
57600;BME280;43426;43.594;24.334;2023-10-31T05:56:52;101082.03;;;8.51;85.80
57600;BME280;43426;43.594;24.334;2023-10-31T05:59:18;101088.44;;;8.68;84.09
57600;BME280;43426;43.594;24.334;2023-10-31T06:01:43;101083.84;;;8.79;83.83
57600;BME280;43426;43.594;24.334;2023-10-31T06:04:08;101081.66;;;9.10;82.76
57600;BME280;43426;43.594;24.334;2023-10-31T06:06:36;101078.06;;;9.37;81.42
57600;BME280;43426;43.594;24.334;2023-10-31T06:09:02;101085.16;;;9.65;80.69
57600;BME280;43426;43.594;24.334;2023-10-31T06:11:27;101090.91;;;9.88;79.63
57600;BME280;43426;43.594;24.334;2023-10-31T06:13:52;101097.72;;;10.00;78.27
57600;BME280;43426;43.594;24.334;2023-10-31T06:16:18;101090.44;;;10.53;75.71
57600;BME280;43426;43.594;24.334;2023-10-31T06:18:43;101095.03;;;10.61;75.89
57600;BME280;43426;43.594;24.334;2023-10-31T06:21:08;101091.09;;;10.98;74.38
57600;BME280;43426;43.594;24.334;2023-10-31T06:23:35;101083.19;;;11.30;73.68
57600;BME280;43426;43.594;24.334;2023-10-31T06:26:00;101095.88;;;11.29;72.49
57600;BME280;43426;43.594;24.334;2023-10-31T06:28:25;101101.97;;;11.23;73.91
57600;BME280;43426;43.594;24.334;2023-10-31T06:30:51;101088.13;;;11.51;72.23
57600;BME280;43426;43.594;24.334;2023-10-31T06:33:16;101087.44;;;11.90;70.82
57600;BME280;43426;43.594;24.334;2023-10-31T06:35:41;101079.78;;;12.10;69.94
57600;BME280;43426;43.594;24.334;2023-10-31T06:38:06;101074.53;;;12.25;70.13
57600;BME280;43426;43.594;24.334;2023-10-31T06:40:32;101069.13;;;12.25;70.47
57600;BME280;43426;43.594;24.334;2023-10-31T06:42:57;101067.72;;;12.37;70.53
57600;BME280;43426;43.594;24.334;2023-10-31T06:45:22;101065.19;;;12.75;69.38
57600;BME280;43426;43.594;24.334;2023-10-31T06:47:48;101062.44;;;13.07;68.14
57600;BME280;43426;43.594;24.334;2023-10-31T06:50:13;101061.78;;;13.36;66.75
57600;BME280;43426;43.594;24.334;2023-10-31T06:52:38;101061.34;;;13.48;66.01
57600;BME280;43426;43.594;24.334;2023-10-31T06:55:04;101053.81;;;13.73;66.21
57600;BME280;43426;43.594;24.334;2023-10-31T06:57:29;101051.81;;;14.20;65.44
57600;BME280;43426;43.594;24.334;2023-10-31T06:59:55;101053.28;;;14.67;63.95
57600;BME280;43426;43.594;24.334;2023-10-31T07:02:20;101049.84;;;14.95;62.65
57600;BME280;43426;43.594;24.334;2023-10-31T07:04:46;101060.66;;;15.10;61.26
57600;BME280;43426;43.594;24.334;2023-10-31T07:07:11;101063.97;;;15.05;62.16
57600;BME280;43426;43.594;24.334;2023-10-31T07:09:36;101051.69;;;15.09;61.51
57600;BME280;43426;43.594;24.334;2023-10-31T07:12:01;101057.19;;;15.16;62.00
57600;BME280;43426;43.594;24.334;2023-10-31T07:14:27;101046.94;;;15.40;61.68
57600;BME280;43426;43.594;24.334;2023-10-31T07:16:52;101038.78;;;15.68;61.10
57600;BME280;43426;43.594;24.334;2023-10-31T07:19:17;101037.63;;;16.06;60.09
57600;BME280;43426;43.594;24.334;2023-10-31T07:21:43;101033.38;;;16.31;59.17
57600;BME280;43426;43.594;24.334;2023-10-31T07:24:08;101032.66;;;16.58;58.50
57600;BME280;43426;43.594;24.334;2023-10-31T07:26:36;101023.94;;;16.82;58.90
57600;BME280;43426;43.594;24.334;2023-10-31T07:29:02;101028.84;;;17.27;56.97
57600;BME280;43426;43.594;24.334;2023-10-31T07:31:27;101021.53;;;17.55;57.14
57600;BME280;43426;43.594;24.334;2023-10-31T07:33:52;101013.06;;;17.90;55.96
57600;BME280;43426;43.594;24.334;2023-10-31T07:36:18;101024.34;;;18.27;54.91
57600;BME280;43426;43.594;24.334;2023-10-31T07:38:43;101009.88;;;18.65;53.95
57600;BME280;43426;43.594;24.334;2023-10-31T07:41:08;101014.72;;;19.08;53.03
57600;BME280;43426;43.594;24.334;2023-10-31T07:43:33;101005.00;;;19.63;51.13
57600;BME280;43426;43.594;24.334;2023-10-31T07:45:59;101007.16;;;19.86;49.47
57600;BME280;43426;43.594;24.334;2023-10-31T07:48:24;101004.44;;;19.79;49.23
57600;BME280;43426;43.594;24.334;2023-10-31T07:50:49;100991.81;;;19.78;49.42
57600;BME280;43426;43.594;24.334;2023-10-31T07:53:15;100989.53;;;19.75;49.14
57600;BME280;43426;43.594;24.334;2023-10-31T07:55:40;100978.09;;;19.60;50.15
57600;BME280;43426;43.594;24.334;2023-10-31T07:58:05;100979.41;;;19.76;50.17
57600;BME280;43426;43.594;24.334;2023-10-31T08:00:30;100973.06;;;20.00;49.19
57600;BME280;43426;43.594;24.334;2023-10-31T08:02:57;100969.16;;;20.27;49.50
57600;BME280;43426;43.594;24.334;2023-10-31T08:05:22;100957.34;;;20.75;48.29
57600;BME280;43426;43.594;24.334;2023-10-31T08:07:47;100944.81;;;21.33;47.21
57600;BME280;43426;43.594;24.334;2023-10-31T08:10:13;100931.00;;;21.75;46.39
57600;BME280;43426;43.594;24.334;2023-10-31T08:12:38;100938.28;;;22.22;45.26
57600;BME280;43426;43.594;24.334;2023-10-31T08:15:04;100933.91;;;22.50;44.49
57600;BME280;43426;43.594;24.334;2023-10-31T08:17:29;100931.88;;;22.91;43.45
57600;BME280;43426;43.594;24.334;2023-10-31T08:19:54;100928.41;;;23.30;43.19
57600;BME280;43426;43.594;24.334;2023-10-31T08:22:19;100931.88;;;23.59;42.09
57600;BME280;43426;43.594;24.334;2023-10-31T08:24:45;100914.38;;;23.88;41.67
57600;BME280;43426;43.594;24.334;2023-10-31T08:27:10;100916.28;;;24.31;40.71
57600;BME280;43426;43.594;24.334;2023-10-31T08:29:36;100912.59;;;24.75;40.39
57600;BME280;43426;43.594;24.334;2023-10-31T08:32:01;100911.78;;;25.12;39.46
57600;BME280;43426;43.594;24.334;2023-10-31T08:34:27;100914.13;;;25.31;38.74
57600;BME280;43426;43.594;24.334;2023-10-31T08:36:52;100914.06;;;25.58;38.35
57600;BME280;43426;43.594;24.334;2023-10-31T08:39:18;100908.69;;;25.89;36.43
57600;BME280;43426;43.594;24.334;2023-10-31T08:41:52;100903.53;;;26.03;36.66
57600;BME280;43426;43.594;24.334;2023-10-31T08:44:18;100899.75;;;26.45;35.88
57600;BME280;43426;43.594;24.334;2023-10-31T08:46:43;100900.31;;;26.68;35.01
57600;BME280;43426;43.594;24.334;2023-10-31T08:49:08;100898.16;;;26.85;34.28
57600;BME280;43426;43.594;24.334;2023-10-31T08:51:33;100887.34;;;27.05;34.52
57600;BME280;43426;43.594;24.334;2023-10-31T08:53:59;100885.66;;;27.40;33.51
57600;BME280;43426;43.594;24.334;2023-10-31T08:56:24;100888.66;;;27.59;33.42
57600;BME280;43426;43.594;24.334;2023-10-31T08:58:49;100886.03;;;27.93;33.83
57600;BME280;43426;43.594;24.334;2023-10-31T09:01:14;100880.03;;;28.26;32.31
57600;BME280;43426;43.594;24.334;2023-10-31T09:03:40;100872.63;;;28.56;31.27
57600;BME280;43426;43.594;24.334;2023-10-31T09:06:05;100868.53;;;28.82;31.72
57600;BME280;43426;43.594;24.334;2023-10-31T09:08:30;100854.38;;;29.13;31.95
57600;BME280;43426;43.594;24.334;2023-10-31T09:10:56;100850.09;;;29.26;30.40
57600;BME280;43426;43.594;24.334;2023-10-31T09:13:21;100855.94;;;29.49;30.23
57600;BME280;43426;43.594;24.334;2023-10-31T09:15:47;100847.66;;;29.68;29.79
57600;BME280;43426;43.594;24.334;2023-10-31T09:18:12;100849.06;;;29.65;29.71
57600;BME280;43426;43.594;24.334;2023-10-31T09:20:38;100836.28;;;29.64;30.46
57600;BME280;43426;43.594;24.334;2023-10-31T09:23:03;100848.25;;;29.89;28.64
57600;BME280;43426;43.594;24.334;2023-10-31T09:25:28;100843.41;;;29.76;28.60
57600;BME280;43426;43.594;24.334;2023-10-31T09:27:55;100838.53;;;29.86;29.52
57600;BME280;43426;43.594;24.334;2023-10-31T09:30:20;100833.28;;;30.23;29.09
57600;BME280;43426;43.594;24.334;2023-10-31T09:32:45;100828.78;;;30.46;27.92
57600;BME280;43426;43.594;24.334;2023-10-31T09:35:11;100825.75;;;30.43;27.47
57600;BME280;43426;43.594;24.334;2023-10-31T09:37:38;100817.09;;;30.25;29.44
57600;BME280;43426;43.594;24.334;2023-10-31T09:40:04;100810.47;;;30.59;28.31
57600;BME280;43426;43.594;24.334;2023-10-31T09:42:29;100802.25;;;30.82;27.86
57600;BME280;43426;43.594;24.334;2023-10-31T09:44:55;100801.81;;;30.61;27.39
57600;BME280;43426;43.594;24.334;2023-10-31T09:47:20;100790.69;;;30.74;27.37
57600;BME280;43426;43.594;24.334;2023-10-31T09:49:45;100789.50;;;30.48;26.92
57600;BME280;43426;43.594;24.334;2023-10-31T09:52:11;100783.78;;;29.82;27.81
57600;BME280;43426;43.594;24.334;2023-10-31T09:54:36;100774.06;;;29.60;28.65
57600;BME280;43426;43.594;24.334;2023-10-31T09:57:03;100771.63;;;29.97;27.80
57600;BME280;43426;43.594;24.334;2023-10-31T09:59:29;100761.31;;;30.16;27.91
57600;BME280;43426;43.594;24.334;2023-10-31T10:01:54;100757.16;;;30.14;28.34
57600;BME280;43426;43.594;24.334;2023-10-31T10:04:19;100746.03;;;30.14;27.37
57600;BME280;43426;43.594;24.334;2023-10-31T10:06:58;100753.50;;;29.99;27.71
57600;BME280;43426;43.594;24.334;2023-10-31T10:09:23;100750.56;;;30.10;27.76
57600;BME280;43426;43.594;24.334;2023-10-31T10:11:49;100743.59;;;30.26;27.32
57600;BME280;43426;43.594;24.334;2023-10-31T10:14:14;100743.72;;;30.54;26.81
57600;BME280;43426;43.594;24.334;2023-10-31T10:16:41;100743.09;;;30.57;27.26
57600;BME280;43426;43.594;24.334;2023-10-31T10:19:14;100734.47;;;30.72;26.33
57600;BME280;43426;43.594;24.334;2023-10-31T10:21:51;100731.16;;;30.98;26.64
57600;BME280;43426;43.594;24.334;2023-10-31T10:24:17;100724.88;;;31.34;25.86
57600;BME280;43426;43.594;24.334;2023-10-31T10:26:42;100717.44;;;31.44;25.97
57600;BME280;43426;43.594;24.334;2023-10-31T10:29:08;100718.22;;;31.58;25.07
57600;BME280;43426;43.594;24.334;2023-10-31T10:31:33;100707.22;;;30.97;25.45
57600;BME280;43426;43.594;24.334;2023-10-31T10:33:58;100707.84;;;30.66;25.80
57600;BME280;43426;43.594;24.334;2023-10-31T10:36:26;100697.22;;;30.54;26.35
57600;BME280;43426;43.594;24.334;2023-10-31T10:38:52;100693.69;;;30.63;26.32
57600;BME280;43426;43.594;24.334;2023-10-31T10:41:21;100685.25;;;30.82;25.54
57600;BME280;43426;43.594;24.334;2023-10-31T10:43:49;100690.19;;;30.57;25.57
57600;BME280;43426;43.594;24.334;2023-10-31T10:46:15;100684.41;;;30.53;26.08
57600;BME280;43426;43.594;24.334;2023-10-31T10:48:43;100683.19;;;30.73;25.20
57600;BME280;43426;43.594;24.334;2023-10-31T10:51:15;100674.09;;;30.96;24.67
57600;BME280;43426;43.594;24.334;2023-10-31T10:53:57;100675.56;;;31.21;25.21
57600;BME280;43426;43.594;24.334;2023-10-31T10:56:26;100659.28;;;31.37;25.02
57600;BME280;43426;43.594;24.334;2023-10-31T10:59:03;100663.31;;;31.58;24.97
57600;BME280;43426;43.594;24.334;2023-10-31T11:01:32;100671.53;;;31.50;23.43
57600;BME280;43426;43.594;24.334;2023-10-31T11:04:00;100668.31;;;31.20;23.38
57600;BME280;43426;43.594;24.334;2023-10-31T11:06:25;100660.84;;;31.43;23.12
57600;BME280;43426;43.594;24.334;2023-10-31T11:08:51;100663.34;;;31.90;22.81
57600;BME280;43426;43.594;24.334;2023-10-31T11:11:17;100660.63;;;32.21;22.67
57600;BME280;43426;43.594;24.334;2023-10-31T11:13:43;100659.22;;;32.33;23.03
57600;BME280;43426;43.594;24.334;2023-10-31T11:16:12;100651.25;;;32.49;22.33
57600;BME280;43426;43.594;24.334;2023-10-31T11:18:40;100638.88;;;32.41;21.87
57600;BME280;43426;43.594;24.334;2023-10-31T11:21:06;100626.84;;;32.32;21.73
57600;BME280;43426;43.594;24.334;2023-10-31T11:23:31;100619.63;;;31.77;22.40
57600;BME280;43426;43.594;24.334;2023-10-31T11:25:57;100622.41;;;31.03;24.82
57600;BME280;43426;43.594;24.334;2023-10-31T11:28:22;100624.69;;;30.73;24.20
57600;BME280;43426;43.594;24.334;2023-10-31T11:30:50;100615.88;;;30.94;25.59
57600;BME280;43426;43.594;24.334;2023-10-31T11:33:16;100609.09;;;31.00;25.19
57600;BME280;43426;43.594;24.334;2023-10-31T11:35:44;100600.78;;;31.23;25.62
57600;BME280;43426;43.594;24.334;2023-10-31T11:38:14;100589.66;;;31.46;25.40
57600;BME280;43426;43.594;24.334;2023-10-31T11:43:13;100585.25;;;30.38;25.49
57600;BME280;43426;43.594;24.334;2023-10-31T11:48:05;100561.22;;;30.01;27.64
57600;BME280;43426;43.594;24.334;2023-10-31T11:50:31;100559.66;;;30.09;28.02
57600;BME280;43426;43.594;24.334;2023-10-31T11:53:04;100555.66;;;30.43;27.67
57600;BME280;43426;43.594;24.334;2023-10-31T11:55:31;100551.88;;;30.52;27.58
57600;BME280;43426;43.594;24.334;2023-10-31T11:57:57;100543.09;;;30.73;26.33
57600;BME280;43426;43.594;24.334;2023-10-31T12:00:23;100540.81;;;30.61;26.94
57600;BME280;43426;43.594;24.334;2023-10-31T12:03:00;100537.13;;;30.52;26.86
57600;BME280;43426;43.594;24.334;2023-10-31T12:05:26;100522.19;;;30.48;27.27
57600;BME280;43426;43.594;24.334;2023-10-31T12:07:52;100524.22;;;30.42;26.65
57600;BME280;43426;43.594;24.334;2023-10-31T12:10:25;100525.47;;;30.22;27.52
57600;BME280;43426;43.594;24.334;2023-10-31T12:12:51;100517.50;;;30.01;26.50
57600;BME280;43426;43.594;24.334;2023-10-31T12:15:17;100522.00;;;29.83;26.94
57600;BME280;43426;43.594;24.334;2023-10-31T12:17:42;100520.34;;;29.82;25.63
57600;BME280;43426;43.594;24.334;2023-10-31T12:20:08;100508.88;;;29.70;26.52
57600;BME280;43426;43.594;24.334;2023-10-31T12:22:34;100514.72;;;29.87;27.01
57600;BME280;43426;43.594;24.334;2023-10-31T12:25:03;100511.78;;;30.12;26.93
57600;BME280;43426;43.594;24.334;2023-10-31T12:27:44;100519.72;;;30.32;25.41
57600;BME280;43426;43.594;24.334;2023-10-31T12:30:10;100509.06;;;30.20;25.17
57600;BME280;43426;43.594;24.334;2023-10-31T12:32:35;100504.00;;;29.95;24.05
57600;BME280;43426;43.594;24.334;2023-10-31T12:35:01;100505.28;;;29.69;24.26
57600;BME280;43426;43.594;24.334;2023-10-31T12:37:26;100495.84;;;29.37;26.69
57600;BME280;43426;43.594;24.334;2023-10-31T12:39:51;100492.72;;;29.25;27.49
57600;BME280;43426;43.594;24.334;2023-10-31T12:42:17;100491.63;;;29.40;27.50